x

South Brooks (46132) Wave Buoy

1:00am - Mon 30th Mar 2015 All times are PDT. -7 hours from GMT.

  • Sig Wave height 10.8ft
  • Peak Period 12s
  • Wind
    29mph, 38mph gusts
  • Sea Temp 51°f
  • Air Temp 50°f
  • Sea Pressure 1012mb
  • South Brooks
  • South Brooks

More Historic Weather Station data

Upgrade to MSW Pro to gain access to the past 30 days of data for over 8000 Wavebouys and Weather Stations around the globe.

Join Pro

Comparision Forecast

View Surf forecast
   
Mon 03/30 1:00am 11ft 12s 29 38 mph 1012mb 51f 50f
12:00am 10.5ft 12s 31 38 mph 1012.8mb 51f 50f
Sun 03/29 11:00pm 10.5ft 13s 29 36 mph 1013.6mb 51f 51f
10:00pm 10.5ft 13s 20 27 mph 1015.2mb 51f 51f
9:00pm 10ft 12s 16 20 mph 1016.5mb 52f 51f
8:00pm 10.5ft 12s 16 18 mph 1017.2mb 52f 51f
7:00pm 11ft 12s 13 16 mph 1018mb 51f 51f
6:00pm 11ft 12s 11 13 mph 1018.8mb 51f 51f
5:00pm 10.5ft 11s 9 11 mph 1019.5mb 51f 51f
4:00pm 10ft 12s 9 11 mph 1020.1mb 52f 52f
3:00pm 10ft 12s 9
mph
1020.5mb 52f 52f
2:00pm 10.5ft 12s 9 11 mph 1020.6mb 51f 52f
1:00pm 10.5ft 11s 9 11 mph 1020.6mb 51f 51f
12:00pm 10.5ft 12s 9 11 mph 1020.3mb 51f 51f
11:00am 11.5ft 10s 7 9 mph 1020.5mb 51f 51f
10:00am 13ft 12s 4 7 mph 1019.5mb 50f 51f
9:00am 13ft 11s 4 9 mph 1019.1mb 50f 51f
8:00am 12.5ft 11s 7 11 mph 1018.5mb 50f 51f
7:00am 14ft 12s 11 16 mph 1017.9mb 50f 51f
6:00am 13ft 12s 11 16 mph 1017.1mb 50f 51f
5:00am 13.5ft 11s 13 16 mph 1016.8mb 50f 51f
4:00am 12.5ft 10s 16 20 mph 1016.2mb 51f 51f
3:00am 13ft 11s 11 16 mph 1015.5mb 51f 51f
2:00am 13.5ft 12s 9 13 mph 1014.6mb 51f 51f
1:00am 13ft 12s 27 34 mph 1013.8mb 51f 52f
12:00am 13ft 12s 27 34 mph 1013.9mb 51f 52f
Sat 03/28 11:00pm 12ft 10s 18 22 mph 1015mb 51f 51f
10:00pm 12.5ft 10s 16 20 mph 1015.7mb 51f 52f
9:00pm 11.5ft 9s 16 20 mph 1015.8mb 51f 52f
8:00pm 13ft 8s 25 31 mph 1015.3mb 51f 52f
7:00pm 13ft 10s 25 29 mph 1015.3mb 51f 52f
6:00pm 12.5ft 8s 29 34 mph 1015.2mb 51f 52f
5:00pm 12ft 8s 27 34 mph 1015.6mb 51f 52f
4:00pm 11.5ft 7s 27 36 mph 1016.2mb 51f 52f
3:00pm 9.5ft 7s 31 38 mph 1016.3mb 51f 52f
2:00pm 9ft 7s 27 34 mph 1016.8mb 51f 51f
1:00pm 8ft 11s 27 34 mph 1017.5mb 51f 50f
12:00pm 7.5ft 11s 31 38 mph 1018.1mb 51f 49f
11:00am 7ft 11s 27 36 mph 1018.6mb 51f 48f
10:00am 7.5ft 11s 25 29 mph 1018.5mb 51f 48f
9:00am 8ft 11s 18 22 mph 1018.9mb 51f 49f
8:00am 8.5ft 12s 16 20 mph 1019.1mb 51f 51f
7:00am 9ft 11s 16 18 mph 1018.9mb 51f 51f
6:00am 8.5ft 11s 9 13 mph 1018.6mb 51f 50f
5:00am 8ft 11s 9 13 mph 1018.3mb 51f 50f
4:00am 8ft 11s 9 11 mph 1018mb 51f 50f
3:00am 9ft 12s 13 18 mph 1017.6mb 51f 50f
2:00am 9.5ft 12s 18 22 mph 1017mb 51f 50f
1:00am 9.5ft 12s 20 25 mph 1016.3mb 51f 50f
12:00am 10ft 11s 25 29 mph 1015.3mb 51f 50f
Fri 03/27 11:00pm 10ft 12s 27 31 mph 1014.2mb 51f 50f
10:00pm 11ft 12s 25 34 mph 1012.4mb 51f 50f
9:00pm 10.5ft 12s 29 34 mph 1010.6mb 51f 49f
8:00pm 9.5ft 12s 27 34 mph 1009.3mb 51f 49f
7:00pm 9.5ft 12s 25 34 mph 1008.1mb 51f 48f
6:00pm 9ft 12s 29 38 mph 1007.2mb 51f 49f
5:00pm 9.5ft 12s 18 22 mph 1007.1mb 51f 52f
4:00pm 9.5ft 12s 16 20 mph 1008mb 51f 51f
3:00pm 9.5ft 12s 16 18 mph 1009.4mb 51f 52f
2:00pm 9ft 12s 18 22 mph 1009.9mb 51f 52f
1:00pm 9.5ft 14s 20 22 mph 1010.6mb 51f 52f
12:00pm 10ft 12s 18 22 mph 1010.5mb 51f 52f
11:00am 10ft 12s 18 22 mph 1010.4mb 51f 52f
10:00am 9ft 14s 18 22 mph 1010.8mb 51f 52f
9:00am 10ft 12s 18 22 mph 1010.8mb 51f 52f
8:00am 10ft 13s 18 20 mph 1011mb 51f 51f
7:00am 10ft 12s 16 20 mph 1011.6mb 51f 51f
6:00am 11ft 12s 13 16 mph 1012.4mb 51f 51f
5:00am 10ft 14s 13 16 mph 1012.9mb 51f 51f
4:00am 10ft 12s 13 16 mph 1013.8mb 51f 52f
3:00am 9ft 12s 13 18 mph 1014.8mb 51f 52f
2:00am 10ft 11s 16 18 mph 1015.4mb 51f 52f
1:00am 10.5ft 11s 18 20 mph 1016mb 51f 52f
12:00am 9ft 10s 20 25 mph 1016.3mb 51f 52f
Thu 03/26 11:00pm 10ft 11s 22 27 mph 1016.5mb 51f 52f
10:00pm 10ft 12s 25 29 mph 1016mb 51f 52f
9:00pm 10ft 12s 25 29 mph 1016.6mb 51f 52f
8:00pm 10ft 12s 22 27 mph 1016.7mb 51f 52f
7:00pm 10ft 11s 22 27 mph 1016.8mb 51f 52f
6:00pm 11ft 12s 22 27 mph 1017.2mb 51f 52f
5:00pm 10ft 11s 22 27 mph 1017.7mb 51f 52f
4:00pm 10ft 12s 22 25 mph 1018.3mb 51f 52f
3:00pm 9.5ft 11s 22 27 mph 1018.6mb 51f 52f
2:00pm 9.5ft 12s 22 25 mph 1019mb 51f 52f
1:00pm 8.5ft 11s 20 22 mph 1019mb 51f 52f
12:00pm 9ft 11s 18 20 mph 1019.5mb 51f 52f
11:00am 9.5ft 11s 18 22 mph 1019.6mb 51f 52f
10:00am 10ft 11s 16 18 mph 1019.7mb 51f 52f